Terminal Aerodrome Forecast
Issued by NWS

Home | Current Version | Previous Version | Text Only | Print | Product List | Glossary On
Versions: 1 2 3 4 5 6 7 8 9 10 11 12 13 14
000
FTPA31 PHFO 291136
TAFHOG
TAF
PHOG 291136Z 2912/3012 04012KT P6SM VCSH FEW035 SCT060
     FM292000 06018G26KT P6SM FEW035 SCT060
     FM300700 04013KT P6SM FEW030 SCT050=

USA.gov is the U.S. government's official web portal to all federal, state and local government web resources and services.